Time;durP1;ratioP1;P1;durP2;ratioP2;P2;SDS_P1;SDS_P2;PMS_P1;PMS_P2;Temp;Humidity;BMP_temperature;BMP_pressure;BME280_temperature;BME280_humidity;BME280_pressure;Samples;Min_cycle;Max_cycle;Signal;HPM_P1;HPM_P2
2023/01/03 00:03:03;;;;;;;54.70;30.20;;;7.30;99.90;;;;;;10361580;28;20485;-77
2023/01/03 00:08:04;;;;;;;56.17;29.27;;;7.30;99.90;;;;;;10362685;28;20121;-78
2023/01/03 00:13:05;;;;;;;53.90;29.93;;;7.30;99.90;;;;;;10362396;28;20497;-75
2023/01/03 00:18:05;;;;;;;53.43;29.53;;;7.30;99.90;;;;;;10361306;28;20030;-75
2023/01/03 00:23:06;;;;;;;68.57;35.63;;;7.30;99.90;;;;;;10362827;28;20397;-76
2023/01/03 00:28:06;;;;;;;63.03;32.83;;;7.20;99.90;;;;;;10351638;28;20041;-77
2023/01/03 00:33:07;;;;;;;57.77;30.57;;;7.20;99.90;;;;;;10353989;28;20056;-78
2023/01/03 00:38:07;;;;;;;63.77;34.53;;;7.10;99.90;;;;;;10361649;28;20042;-77
2023/01/03 00:48:28;;;;;;;62.73;32.57;;;7.10;99.90;;;;;;10347034;28;20046;-77
2023/01/03 00:53:28;;;;;;;61.37;34.73;;;7.10;99.90;;;;;;10360784;28;20095;-75
2023/01/03 00:58:30;;;;;;;70.27;35.33;;;7.10;99.90;;;;;;10360291;28;20049;-75
2023/01/03 01:03:31;;;;;;;67.87;37.77;;;7.10;99.90;;;;;;10340393;28;20038;-75
2023/01/03 01:08:31;;;;;;;65.47;35.50;;;7.20;99.90;;;;;;10352567;28;20021;-77
2023/01/03 01:13:33;;;;;;;68.63;34.00;;;7.20;99.90;;;;;;10328737;28;20058;-76
2023/01/03 01:18:34;;;;;;;64.53;33.23;;;7.20;99.90;;;;;;10334274;28;20033;-78
2023/01/03 01:23:37;;;;;;;68.03;33.57;;;7.30;99.90;;;;;;10350087;28;20117;-75
2023/01/03 01:28:38;;;;;;;66.67;35.27;;;7.30;99.90;;;;;;10360858;28;20646;-75
2023/01/03 01:33:38;;;;;;;69.53;36.33;;;7.30;99.90;;;;;;10359019;28;20049;-75
2023/01/03 01:38:39;;;;;;;62.90;33.83;;;7.40;99.90;;;;;;10360645;28;20127;-77
2023/01/03 01:49:24;;;;;;;56.33;31.47;;;7.50;99.90;;;;;;10353743;28;20433;-75
2023/01/03 01:54:25;;;;;;;65.47;33.47;;;7.50;99.90;;;;;;10375159;23;20505;-75
2023/01/03 01:59:27;;;;;;;53.83;27.40;;;7.60;99.90;;;;;;10421988;28;20041;-77
2023/01/03 02:04:32;;;;;;;53.57;30.27;;;7.50;99.90;;;;;;10453946;28;20036;-76
2023/01/03 02:09:34;;;;;;;53.30;27.77;;;7.60;99.90;;;;;;10455044;28;20503;-75
2023/01/03 02:15:14;;;;;;;49.60;29.50;;;7.70;99.90;;;;;;10455542;28;20048;-75
2023/01/03 02:20:43;;;;;;;39.40;22.50;;;7.70;99.90;;;;;;10438929;28;20036;-76
2023/01/03 02:25:46;;;;;;;33.97;18.80;;;7.70;99.90;;;;;;10388329;28;20046;-75
2023/01/03 02:31:24;;;;;;;34.07;17.87;;;7.80;99.90;;;;;;10395872;28;20044;-77
2023/01/03 02:36:36;;;;;;;34.60;17.07;;;7.70;99.90;;;;;;10402586;28;20034;-75
2023/01/03 02:47:21;;;;;;;29.00;16.33;;;7.80;99.90;;;;;;10410793;28;20412;-75
2023/01/03 02:52:25;;;;;;;32.30;17.90;;;7.80;99.90;;;;;;10399417;28;20025;-75
2023/01/03 02:57:34;;;;;;;33.37;16.67;;;7.80;99.90;;;;;;10405522;28;20084;-75
2023/01/03 03:02:36;;;;;;;31.53;17.33;;;7.80;99.90;;;;;;10399302;28;20143;-75
2023/01/03 03:07:39;;;;;;;31.60;16.70;;;7.80;99.90;;;;;;10408830;28;20150;-75
2023/01/03 03:18:07;;;;;;;30.43;14.63;;;7.80;99.90;;;;;;10405464;28;20566;-75
2023/01/03 03:28:36;;;;;;;31.50;15.30;;;7.80;99.90;;;;;;10408140;28;20147;-75
2023/01/03 03:33:52;;;;;;;25.43;14.87;;;7.80;99.90;;;;;;10403120;28;20184;-77
2023/01/03 03:38:53;;;;;;;32.78;16.88;;;7.90;99.90;;;;;;10395190;28;20042;-76
2023/01/03 03:49:37;;;;;;;29.27;16.27;;;7.80;99.90;;;;;;10406714;28;20040;-75
2023/01/03 03:54:40;;;;;;;27.40;14.10;;;7.80;99.90;;;;;;10381440;28;20057;-75
2023/01/03 03:59:47;;;;;;;28.13;15.43;;;7.70;99.90;;;;;;10405055;28;20033;-75
2023/01/03 04:04:53;;;;;;;32.60;15.60;;;7.70;99.90;;;;;;10413928;22;20029;-77
2023/01/03 04:09:53;;;;;;;28.63;15.85;;;7.70;99.90;;;;;;10404200;28;20041;-75
2023/01/03 04:14:54;;;;;;;29.53;15.00;;;7.70;99.90;;;;;;10400573;28;20025;-75
2023/01/03 04:19:54;;;;;;;25.70;14.53;;;7.70;99.90;;;;;;10402872;28;20033;-76
2023/01/03 04:24:55;;;;;;;27.57;14.00;;;7.70;99.90;;;;;;10402289;28;20041;-75
2023/01/03 04:29:56;;;;;;;27.53;13.43;;;7.70;99.90;;;;;;10401094;28;20053;-75
2023/01/03 04:34:57;;;;;;;26.97;14.87;;;7.60;99.90;;;;;;10399399;28;20393;-75
2023/01/03 04:39:57;;;;;;;26.63;15.20;;;7.60;99.90;;;;;;10400997;28;20040;-77
2023/01/03 04:44:58;;;;;;;34.77;19.17;;;7.60;99.90;;;;;;10400479;28;20034;-76
2023/01/03 04:49:58;;;;;;;36.00;19.67;;;7.60;99.90;;;;;;10400687;28;20033;-77
2023/01/03 04:54:59;;;;;;;33.00;18.30;;;7.60;99.90;;;;;;10398708;28;20116;-75
2023/01/03 05:00:00;;;;;;;34.57;19.47;;;7.60;99.90;;;;;;10391308;28;20053;-75
2023/01/03 05:05:00;;;;;;;31.10;17.87;;;7.60;99.90;;;;;;10393090;28;20500;-77
2023/01/03 05:10:01;;;;;;;35.20;20.77;;;7.60;99.90;;;;;;10397209;28;20154;-75
2023/01/03 05:15:01;;;;;;;30.07;17.30;;;7.50;99.90;;;;;;10384660;28;20041;-75
2023/01/03 05:30:41;;;;;;;26.73;14.07;;;7.20;99.90;;;;;;10398743;28;20045;-75
2023/01/03 05:35:46;;;;;;;29.53;14.40;;;7.20;99.90;;;;;;10400200;28;20021;-75
2023/01/03 05:40:46;;;;;;;26.70;14.20;;;7.10;99.90;;;;;;10400796;28;20022;-77
2023/01/03 05:45:51;;;;;;;29.53;14.73;;;7.10;99.90;;;;;;10401238;28;20025;-75
2023/01/03 05:50:56;;;;;;;34.37;21.60;;;7.20;99.90;;;;;;10400099;28;20045;-77
2023/01/03 05:55:56;;;;;;;32.80;17.57;;;7.20;99.90;;;;;;10400655;28;20036;-75
2023/01/03 06:00:57;;;;;;;29.77;17.30;;;7.30;99.90;;;;;;10400031;28;20041;-77
2023/01/03 06:06:01;;;;;;;40.83;27.30;;;7.30;99.90;;;;;;10400078;28;20061;-75
2023/01/03 06:11:11;;;;;;;46.07;30.77;;;7.40;99.90;;;;;;10400255;28;20112;-75
2023/01/03 06:21:36;;;;;;;37.20;21.03;;;7.60;99.90;;;;;;10400449;28;20033;-75
2023/01/03 06:26:37;;;;;;;38.73;25.00;;;7.70;99.90;;;;;;10400142;28;20699;-77
2023/01/03 06:31:37;;;;;;;45.87;23.97;;;7.70;99.90;;;;;;10405908;28;20128;-76
2023/01/03 06:36:39;;;;;;;47.47;23.27;;;7.70;99.90;;;;;;10407585;28;20389;-76
2023/01/03 06:41:40;;;;;;;44.50;23.50;;;7.80;99.90;;;;;;10407989;28;20061;-75
2023/01/03 06:57:20;;;;;;;53.20;26.17;;;7.70;99.90;;;;;;10406197;28;20042;-75
2023/01/03 07:02:21;;;;;;;38.67;20.40;;;7.80;99.90;;;;;;10406319;28;20038;-76
2023/01/03 07:07:22;;;;;;;34.67;17.80;;;7.70;99.90;;;;;;10405925;28;20064;-75
2023/01/03 07:17:41;;;;;;;32.50;19.70;;;7.80;99.90;;;;;;10405655;28;20029;-76
2023/01/03 07:22:42;;;;;;;35.87;19.37;;;7.90;99.90;;;;;;10405300;28;20014;-75
2023/01/03 07:27:42;;;;;;;64.50;29.33;;;8.00;99.90;;;;;;10405664;28;20036;-75
2023/01/03 07:32:43;;;;;;;58.63;29.27;;;8.00;99.90;;;;;;10405697;28;20037;-76
2023/01/03 07:37:43;;;;;;;50.00;24.27;;;8.10;99.90;;;;;;10405153;28;20018;-76
2023/01/03 07:48:03;;;;;;;68.10;30.53;;;8.20;99.90;;;;;;10404890;28;20037;-77
2023/01/03 07:53:05;;;;;;;51.60;25.53;;;8.20;99.90;;;;;;10404118;28;20473;-75
2023/01/03 07:58:06;;;;;;;48.13;24.93;;;8.20;99.90;;;;;;10403972;28;20033;-76
2023/01/03 08:03:08;;;;;;;41.07;20.97;;;8.30;99.90;;;;;;10404342;28;20257;-75
2023/01/03 08:08:09;;;;;;;39.53;20.00;;;8.30;99.90;;;;;;10403377;28;20069;-76
2023/01/03 08:13:16;;;;;;;51.47;26.83;;;8.40;99.90;;;;;;10404043;28;20030;-76
2023/01/03 08:18:19;;;;;;;33.37;16.97;;;8.50;99.90;;;;;;10403075;28;20033;-77
2023/01/03 08:23:21;;;;;;;38.43;17.80;;;8.60;99.90;;;;;;10403125;28;20039;-75
2023/01/03 08:28:21;;;;;;;38.57;20.07;;;8.60;99.90;;;;;;10402785;28;20112;-75
2023/01/03 08:33:24;;;;;;;44.20;24.77;;;8.70;99.90;;;;;;10403228;28;20056;-76
2023/01/03 08:38:29;;;;;;;32.40;20.23;;;8.70;99.90;;;;;;10403562;28;20116;-75
2023/01/03 08:43:34;;;;;;;31.33;16.70;;;8.80;99.90;;;;;;10402113;28;20443;-76
2023/01/03 08:48:35;;;;;;;26.43;14.10;;;8.80;99.90;;;;;;10402503;28;20025;-75
2023/01/03 08:53:35;;;;;;;23.77;12.83;;;8.80;99.90;;;;;;10401025;28;20038;-75
2023/01/03 08:58:36;;;;;;;21.67;12.93;;;8.80;99.90;;;;;;10401257;28;20053;-75
2023/01/03 09:03:37;;;;;;;19.87;11.57;;;8.80;99.90;;;;;;10401445;28;20021;-76
2023/01/03 09:08:37;;;;;;;21.07;11.90;;;8.90;99.90;;;;;;10401446;28;20140;-75
2023/01/03 09:13:38;;;;;;;16.57;9.60;;;8.90;99.90;;;;;;10400874;28;20041;-77
2023/01/03 09:18:39;;;;;;;37.53;17.10;;;9.00;99.90;;;;;;10401282;28;20079;-75
2023/01/03 09:23:40;;;;;;;24.23;12.43;;;9.10;99.90;;;;;;10400820;28;20037;-75
2023/01/03 09:28:40;;;;;;;16.90;10.33;;;9.10;99.90;;;;;;10401287;28;20878;-75
2023/01/03 09:33:41;;;;;;;9.60;5.47;;;9.20;99.90;;;;;;10401196;28;20036;-75
2023/01/03 09:38:42;;;;;;;11.57;7.00;;;9.30;99.90;;;;;;10401394;28;20028;-77
2023/01/03 09:43:46;;;;;;;9.17;5.13;;;9.30;99.90;;;;;;10400281;28;20029;-75
2023/01/03 09:48:48;;;;;;;11.27;5.83;;;9.50;99.90;;;;;;10400683;28;20017;-77
2023/01/03 10:05:12;;;;;;;10.57;4.60;;;9.60;99.90;;;;;;10405487;28;20706;-75
2023/01/03 10:10:27;;;;;;;7.07;4.20;;;9.90;99.90;;;;;;10408524;28;20080;-75
2023/01/03 10:15:47;;;;;;;5.57;3.10;;;10.20;99.90;;;;;;10408055;28;20037;-75
2023/01/03 10:20:57;;;;;;;4.60;2.97;;;10.40;99.90;;;;;;10408258;28;20068;-75
2023/01/03 10:25:58;;;;;;;3.58;2.10;;;10.60;99.90;;;;;;10408705;28;20113;-76
2023/01/03 10:31:24;;;;;;;4.70;2.50;;;10.80;99.90;;;;;;10407807;28;20041;-76
2023/01/03 10:36:24;;;;;;;4.55;2.55;;;11.00;99.90;;;;;;10408003;28;20030;-77
2023/01/03 10:41:43;;;;;;;4.28;2.40;;;10.90;99.90;;;;;;10407468;28;20512;-75
2023/01/03 10:46:52;;;;;;;7.13;3.35;;;10.80;99.90;;;;;;10395698;28;20033;-77
2023/01/03 10:52:01;;;;;;;4.32;2.80;;;10.70;99.90;;;;;;10407155;28;20068;-76
2023/01/03 10:57:04;;;;;;;4.90;3.78;;;10.60;99.90;;;;;;10406584;28;20542;-76
2023/01/03 11:02:08;;;;;;;12.45;6.35;;;10.40;99.90;;;;;;10406429;28;20040;-76
2023/01/03 11:07:08;;;;;;;10.52;6.03;;;10.30;99.90;;;;;;10406860;28;20061;-76
2023/01/03 11:12:27;;;;;;;17.98;10.02;;;10.30;99.90;;;;;;10405605;28;20037;-76
2023/01/03 11:17:29;;;;;;;10.97;5.70;;;10.70;99.90;;;;;;10405673;28;20053;-75
2023/01/03 11:22:55;;;;;;;11.13;5.82;;;10.60;99.90;;;;;;10405648;28;20432;-76
2023/01/03 11:28:07;;;;;;;;;;;10.60;99.90;;;;;;10406712;28;20037;-76
2023/01/03 11:33:26;;;;;;;7.28;4.88;;;10.70;99.90;;;;;;10405884;28;19924;-77
2023/01/03 11:38:49;;;;;;;7.85;5.22;;;10.50;99.90;;;;;;10405206;28;20088;-78
2023/01/03 11:44:20;;;;;;;6.72;4.35;;;10.30;99.90;;;;;;10406037;28;20037;-76
2023/01/03 11:49:39;;;;;;;6.45;4.75;;;10.20;99.90;;;;;;10373493;28;20103;-76
2023/01/03 11:54:45;;;;;;;5.50;4.15;;;10.50;99.90;;;;;;10404923;28;20029;-76
2023/01/03 12:00:15;;;;;;;7.35;4.75;;;10.80;99.90;;;;;;10404198;28;20504;-77
2023/01/03 12:05:36;;;;;;;8.50;4.45;;;10.90;99.90;;;;;;10403930;28;20064;-76
2023/01/03 12:10:54;;;;;;;19.10;8.10;;;10.60;99.90;;;;;;10403596;28;20048;-76
2023/01/03 12:16:13;;;;;;;9.43;5.38;;;10.30;99.90;;;;;;10404099;28;20124;-76
2023/01/03 12:21:41;;;;;;;16.40;8.03;;;10.00;99.90;;;;;;10404179;28;20034;-77
2023/01/03 12:26:46;;;;;;;9.77;5.57;;;9.80;99.90;;;;;;10402240;28;20025;-76
2023/01/03 12:31:56;;;;;;;6.43;3.97;;;10.00;99.90;;;;;;10403790;28;20044;-77
2023/01/03 12:37:15;;;;;;;5.43;3.17;;;10.20;99.90;;;;;;10403901;28;20025;-76
2023/01/03 12:42:30;;;;;;;5.55;3.50;;;10.10;99.90;;;;;;10390028;28;20061;-77
2023/01/03 12:47:47;;;;;;;6.13;3.50;;;10.00;99.90;;;;;;10402243;28;20446;-76
2023/01/03 12:53:18;;;;;;;7.80;4.57;;;9.80;99.90;;;;;;10402373;28;20187;-77
2023/01/03 12:58:46;;;;;;;8.17;4.40;;;9.70;99.90;;;;;;10401002;28;20021;-75
2023/01/03 13:03:53;;;;;;;33.13;14.53;;;9.60;99.90;;;;;;10402148;28;20067;-76
2023/01/03 13:09:07;;;;;;;49.47;25.07;;;9.60;99.90;;;;;;10401581;28;20103;-76
2023/01/03 13:14:18;;;;;;;24.37;11.87;;;9.60;99.90;;;;;;10398214;28;20397;-76
2023/01/03 13:19:21;;;;;;;8.87;5.33;;;9.60;99.90;;;;;;10388013;28;20137;-76
2023/01/03 13:24:43;;;;;;;7.07;4.40;;;9.60;99.90;;;;;;10393063;28;20053;-76
2023/01/03 13:29:49;;;;;;;16.03;8.07;;;9.60;99.90;;;;;;10391645;28;20049;-76
2023/01/03 13:34:53;;;;;;;12.00;7.00;;;9.60;99.90;;;;;;10396862;28;20056;-77
2023/01/03 13:40:02;;;;;;;11.13;6.47;;;9.50;99.90;;;;;;10398829;28;20567;-77
2023/01/03 13:45:14;;;;;;;15.43;9.03;;;9.30;99.90;;;;;;10401269;28;20032;-76
2023/01/03 13:50:19;;;;;;;24.47;12.53;;;9.20;99.90;;;;;;10384645;28;20072;-76
2023/01/03 13:55:34;;;;;;;12.77;6.43;;;9.20;99.90;;;;;;10385241;28;20033;-75
2023/01/03 14:00:39;;;;;;;9.47;5.37;;;9.10;99.90;;;;;;10400044;28;20110;-79
2023/01/03 14:06:04;;;;;;;7.23;3.80;;;9.00;99.90;;;;;;10399838;28;20096;-77
2023/01/03 14:11:32;;;;;;;6.87;3.27;;;9.00;99.90;;;;;;10399936;28;20040;-76
2023/01/03 14:16:48;;;;;;;4.50;3.37;;;8.90;99.90;;;;;;10398510;28;20041;-77
2023/01/03 14:21:56;;;;;;;6.53;3.63;;;8.70;99.90;;;;;;10392827;28;20500;-76
2023/01/03 14:27:15;;;;;;;12.47;4.87;;;8.60;99.90;;;;;;10400074;28;20044;-77
2023/01/03 14:32:27;;;;;;;14.20;6.53;;;8.50;99.90;;;;;;10399739;28;20033;-76
2023/01/03 14:37:29;;;;;;;12.20;5.40;;;8.40;99.90;;;;;;10392131;28;20108;-77
2023/01/03 14:42:29;;;;;;;16.90;7.87;;;8.20;99.90;;;;;;10384695;28;20509;-77
2023/01/03 14:47:41;;;;;;;11.80;5.60;;;8.10;99.90;;;;;;10393261;28;20037;-77
2023/01/03 14:52:44;;;;;;;12.57;5.30;;;7.80;99.90;;;;;;10392503;28;20469;-77
2023/01/03 14:57:47;;;;;;;10.43;5.70;;;7.70;99.90;;;;;;10406072;28;20393;-76
2023/01/03 15:02:48;;;;;;;12.77;5.37;;;7.50;99.90;;;;;;10406400;28;20379;-76
2023/01/03 15:07:49;;;;;;;10.93;5.53;;;7.40;99.90;;;;;;10405432;28;20049;-75
2023/01/03 15:12:52;;;;;;;12.60;7.23;;;7.30;99.90;;;;;;10397454;28;20041;-76
2023/01/03 15:17:58;;;;;;;13.47;7.57;;;7.20;99.90;;;;;;10378439;28;20121;-76
2023/01/03 15:22:59;;;;;;;16.60;7.45;;;7.10;99.90;;;;;;10398062;28;20673;-77
2023/01/03 15:28:29;;;;;;;15.40;8.17;;;6.90;99.90;;;;;;10405716;28;20033;-75
2023/01/03 15:33:33;;;;;;;18.07;8.90;;;6.70;99.90;;;;;;10404746;28;20051;-76
2023/01/03 15:38:36;;;;;;;14.27;7.37;;;6.40;99.90;;;;;;10404366;28;20057;-76
2023/01/03 15:43:37;;;;;;;16.93;8.83;;;6.30;99.90;;;;;;10405375;28;20651;-78
2023/01/03 15:48:39;;;;;;;15.57;8.70;;;6.20;99.90;;;;;;10394075;28;20034;-78
2023/01/03 15:53:40;;;;;;;19.63;9.10;;;6.20;99.90;;;;;;10400516;28;20759;-76
2023/01/03 15:58:41;;;;;;;19.97;10.90;;;6.20;99.90;;;;;;10404521;28;20053;-78
2023/01/03 16:03:42;;;;;;;23.70;11.03;;;6.10;99.90;;;;;;10422062;23;20056;-77
2023/01/03 16:08:43;;;;;;;24.23;11.97;;;6.10;99.90;;;;;;10444112;28;20752;-77
2023/01/03 16:13:57;;;;;;;24.00;11.50;;;6.00;99.90;;;;;;10444805;28;20033;-75
2023/01/03 16:18:58;;;;;;;37.87;18.17;;;5.90;99.90;;;;;;10445135;28;20114;-77
2023/01/03 16:23:58;;;;;;;39.70;20.33;;;5.80;99.90;;;;;;10442448;28;20186;-76
2023/01/03 16:28:59;;;;;;;32.40;16.43;;;5.70;99.90;;;;;;10433034;28;20051;-79
2023/01/03 16:34:02;;;;;;;39.20;18.80;;;5.60;99.90;;;;;;10442164;28;20520;-77
2023/01/03 16:39:06;;;;;;;31.37;16.60;;;5.50;99.90;;;;;;10436222;28;20065;-79
2023/01/03 16:44:06;;;;;;;37.47;18.00;;;5.50;99.90;;;;;;10442958;28;20465;-76
2023/01/03 16:49:09;;;;;;;36.37;17.30;;;5.50;99.90;;;;;;10441324;28;20032;-76
2023/01/03 16:54:12;;;;;;;41.43;20.23;;;5.50;99.90;;;;;;10443397;28;20120;-77
2023/01/03 16:59:17;;;;;;;106.63;47.77;;;5.60;99.90;;;;;;10425995;28;20033;-76
2023/01/03 17:04:17;;;;;;;121.30;60.20;;;5.60;99.90;;;;;;10432783;28;20123;-79
2023/01/03 17:09:28;;;;;;;131.07;71.67;;;5.70;99.90;;;;;;10436739;28;20041;-78
2023/01/03 17:14:33;;;;;;;121.20;73.60;;;5.80;99.90;;;;;;10430264;22;20142;-80
2023/01/03 17:19:34;;;;;;;114.53;67.07;;;5.90;99.90;;;;;;10400124;28;20112;-77
2023/01/03 17:24:35;;;;;;;80.53;42.73;;;5.90;99.90;;;;;;10401776;28;20035;-78
2023/01/03 17:29:37;;;;;;;80.37;42.17;;;5.90;99.90;;;;;;10400476;28;20076;-78
2023/01/03 17:34:37;;;;;;;152.40;79.70;;;5.90;99.90;;;;;;10401203;28;20068;-79
2023/01/03 17:39:38;;;;;;;148.93;82.37;;;5.90;99.90;;;;;;10397272;28;20111;-77
2023/01/03 17:44:39;;;;;;;108.80;57.77;;;5.90;99.90;;;;;;10401198;28;20151;-78
2023/01/03 17:49:39;;;;;;;79.37;43.43;;;5.90;99.90;;;;;;10399544;28;20064;-78
2023/01/03 17:54:40;;;;;;;94.97;48.47;;;5.90;99.90;;;;;;10400877;28;20036;-80
2023/01/03 17:59:40;;;;;;;90.97;47.67;;;5.90;99.90;;;;;;10394121;28;20041;-78
2023/01/03 18:04:41;;;;;;;114.97;54.10;;;5.80;99.90;;;;;;10389428;28;20014;-77
2023/01/03 18:09:42;;;;;;;346.50;160.83;;;5.60;99.90;;;;;;10397071;28;20038;-80
2023/01/03 18:14:43;;;;;;;154.23;83.23;;;5.50;99.90;;;;;;10400316;28;20145;-77
2023/01/03 18:19:43;;;;;;;167.10;97.33;;;5.40;99.90;;;;;;10391672;28;20056;-77
2023/01/03 18:24:44;;;;;;;230.63;129.03;;;5.30;99.90;;;;;;10403182;28;20017;-79
2023/01/03 18:29:44;;;;;;;267.80;143.67;;;5.10;99.90;;;;;;10403476;28;20064;-76
2023/01/03 18:34:45;;;;;;;279.40;162.60;;;5.10;99.90;;;;;;10402471;28;20469;-76
2023/01/03 18:39:46;;;;;;;268.13;145.63;;;5.00;99.90;;;;;;10407228;28;20101;-76
2023/01/03 18:44:46;;;;;;;228.30;121.07;;;5.00;99.90;;;;;;10408426;28;20055;-78
2023/01/03 18:49:47;;;;;;;216.33;114.33;;;5.00;99.90;;;;;;10376590;28;20533;-77
2023/01/03 18:54:48;;;;;;;175.60;94.17;;;5.10;99.90;;;;;;10399184;28;20113;-76
2023/01/03 18:59:49;;;;;;;102.23;53.57;;;5.10;99.90;;;;;;10403867;28;20044;-77
2023/01/03 19:04:49;;;;;;;69.53;37.33;;;5.20;99.90;;;;;;10401183;28;20060;-78
2023/01/03 19:09:50;;;;;;;63.00;32.47;;;5.20;99.90;;;;;;10404990;28;20123;-79
2023/01/03 19:14:51;;;;;;;63.93;33.23;;;5.30;99.90;;;;;;10401084;28;20050;-78
2023/01/03 19:19:51;;;;;;;58.70;30.50;;;5.30;99.90;;;;;;10401936;28;20038;-78
2023/01/03 19:24:54;;;;;;;59.70;30.93;;;5.30;99.90;;;;;;10405246;28;20045;-77
2023/01/03 19:29:55;;;;;;;56.00;29.93;;;5.10;99.90;;;;;;10404598;28;20048;-76
2023/01/03 19:34:55;;;;;;;54.23;27.10;;;5.10;99.90;;;;;;10400016;28;20031;-76
2023/01/03 19:39:56;;;;;;;71.57;36.43;;;4.90;99.90;;;;;;10391834;28;20033;-76
2023/01/03 19:44:58;;;;;;;77.37;38.10;;;4.80;99.90;;;;;;10404165;28;20040;-76
2023/01/03 19:50:01;;;;;;;111.10;50.17;;;4.70;99.90;;;;;;10403061;28;20096;-77
2023/01/03 19:55:02;;;;;;;173.27;84.43;;;4.60;99.90;;;;;;10401334;28;20347;-77
2023/01/03 20:00:04;;;;;;;166.43;78.23;;;4.50;99.90;;;;;;10403149;28;20048;-79
2023/01/03 20:05:16;;;;;;;94.17;45.10;;;4.40;99.90;;;;;;10396207;28;20599;-76
2023/01/03 20:10:22;;;;;;;122.33;58.43;;;4.30;99.90;;;;;;10397039;28;20033;-77
2023/01/03 20:15:26;;;;;;;110.07;57.30;;;4.30;99.90;;;;;;10396962;28;20064;-77
2023/01/03 20:20:29;;;;;;;125.80;62.53;;;4.10;99.90;;;;;;10393612;28;20025;-76
2023/01/03 20:25:32;;;;;;;157.97;76.00;;;4.00;99.90;;;;;;10403150;28;20109;-77
2023/01/03 20:30:33;;;;;;;151.10;71.57;;;3.80;99.90;;;;;;10400911;28;20045;-77
2023/01/03 20:35:34;;;;;;;161.60;77.17;;;3.70;99.90;;;;;;10400697;28;20144;-77
2023/01/03 20:40:34;;;;;;;141.47;64.83;;;3.70;99.90;;;;;;10388468;28;20044;-76
2023/01/03 20:45:36;;;;;;;122.00;58.23;;;3.50;99.90;;;;;;10392083;28;20360;-76
2023/01/03 20:50:36;;;;;;;120.40;58.37;;;3.50;99.90;;;;;;10401402;28;20124;-77
2023/01/03 20:55:38;;;;;;;97.17;46.90;;;3.40;99.90;;;;;;10401230;28;20049;-77
2023/01/03 21:00:38;;;;;;;97.97;47.00;;;3.30;99.90;;;;;;10401018;28;20037;-76
2023/01/03 21:05:39;;;;;;;100.27;47.93;;;3.20;99.90;;;;;;10394701;28;20056;-75
2023/01/03 21:10:42;;;;;;;111.93;51.57;;;3.10;99.90;;;;;;10401081;28;20037;-76
2023/01/03 21:15:43;;;;;;;105.57;53.77;;;3.10;99.90;;;;;;10375746;28;20443;-76
2023/01/03 21:20:44;;;;;;;138.20;63.57;;;3.00;99.90;;;;;;10401755;28;20040;-76
2023/01/03 21:25:45;;;;;;;151.13;72.73;;;3.00;99.90;;;;;;10400546;28;20029;-77
2023/01/03 21:30:46;;;;;;;192.57;94.60;;;2.90;99.90;;;;;;10400048;28;20137;-78
2023/01/03 21:35:49;;;;;;;167.60;82.73;;;2.90;99.90;;;;;;10401069;28;20051;-76
2023/01/03 21:40:50;;;;;;;152.90;76.60;;;2.80;99.90;;;;;;10400277;28;20024;-77
2023/01/03 21:45:53;;;;;;;142.13;70.50;;;2.80;99.90;;;;;;10399288;28;20033;-76
2023/01/03 21:50:54;;;;;;;138.90;66.00;;;2.70;99.90;;;;;;10388985;28;20186;-77
2023/01/03 21:55:54;;;;;;;135.70;66.63;;;2.70;99.90;;;;;;10400215;28;20095;-76
2023/01/03 22:00:55;;;;;;;137.40;68.50;;;2.70;99.90;;;;;;10392672;28;20231;-76
2023/01/03 22:06:10;;;;;;;126.47;61.37;;;2.70;99.90;;;;;;10408032;28;20029;-76
2023/01/03 22:11:11;;;;;;;119.35;56.83;;;2.60;99.90;;;;;;10407774;28;20557;-76
2023/01/03 22:16:12;;;;;;;117.20;53.77;;;2.70;99.90;;;;;;10407952;28;20059;-75
2023/01/03 22:21:13;;;;;;;119.50;54.63;;;2.70;99.90;;;;;;10409422;28;20037;-76
2023/01/03 22:26:15;;;;;;;106.57;52.90;;;2.60;99.90;;;;;;10408286;28;20030;-76
2023/01/03 22:31:18;;;;;;;106.67;51.40;;;2.50;99.90;;;;;;10394931;28;20037;-75
2023/01/03 22:36:18;;;;;;;105.93;50.63;;;2.50;99.90;;;;;;10391784;28;20454;-77
2023/01/03 22:41:19;;;;;;;135.13;61.13;;;2.50;99.90;;;;;;10376017;28;20033;-78
2023/01/03 22:46:20;;;;;;;170.47;82.37;;;2.30;99.90;;;;;;10398668;28;20025;-76
2023/01/03 22:51:20;;;;;;;148.73;70.43;;;2.20;99.90;;;;;;10407775;28;20041;-77
2023/01/03 22:56:21;;;;;;;170.53;76.47;;;2.20;99.90;;;;;;10406598;28;20033;-78
2023/01/03 23:01:26;;;;;;;138.60;63.67;;;2.10;99.90;;;;;;10404743;28;20473;-76
2023/01/03 23:06:28;;;;;;;151.17;64.63;;;2.10;99.90;;;;;;10406815;28;20028;-76
2023/01/03 23:16:51;;;;;;;113.67;55.83;;;2.00;99.90;;;;;;10399312;28;20057;-77
2023/01/03 23:21:52;;;;;;;111.60;55.13;;;2.00;99.90;;;;;;10366311;28;20045;-76
2023/01/03 23:26:53;;;;;;;131.17;57.60;;;1.90;99.90;;;;;;10367566;28;20049;-77
2023/01/03 23:31:53;;;;;;;216.70;97.73;;;1.80;99.90;;;;;;10373919;28;20107;-77
2023/01/03 23:36:54;;;;;;;182.63;81.17;;;1.70;99.90;;;;;;10388075;28;20033;-78
2023/01/03 23:41:55;;;;;;;164.27;79.57;;;1.80;99.90;;;;;;10404278;28;20469;-76
2023/01/03 23:46:55;;;;;;;174.80;86.67;;;1.70;99.90;;;;;;10403975;28;20045;-76
2023/01/03 23:51:56;;;;;;;221.83;96.83;;;1.80;99.90;;;;;;10405514;28;20072;-77
2023/01/03 23:56:56;;;;;;;212.83;95.50;;;1.70;99.90;;;;;;10385974;28;20300;-78
